Ogden Hinckley Airport Ogden US
ICAO: KOGD
IATA: OGD
Category: Medium
Scheduled Services: No

Elevation: 4473 ft
TransAlt. 18000 ft.

Airport Communications:
APP/DEP:121.1
ASOS:125.55
ATIS:125.55
CTAF:118.7
GND:121.7
CEDAR CITY RDO:122.45
TWR:118.7
UNICOM:122.95

KOGD Zoom In..

If you have problems with the map follow the link
https://www.worldairports.se/pages/airport.php?
ICAO=KOGD

Runways:

(A) RW 03 length 8103 ft width 150 ft
ILS 111.70 / hdg 31

(B) RW 07 length 3618 ft width 150 ft
---- / hdg 75

(C) RW 16 length 5195 ft width 100 ft
---- / hdg 165

(D) RW 21 length 8103 ft width 150 ft
---- / hdg 211

(E) RW 25 length 3618 ft width 150 ft
---- / hdg 255

(F) RW 34 length 5195 ft width 100 ft
---- / hdg 345

Location; KOGD
Day. 29 / Time. 17.17 Zulu
* Altimeter: 30.22
* Temperature: 00° c. 32°f.
* Wind from: 170° Speed 06 kn.
Dewpoint: -02° c.
Visibility: 5 Statute Miles.
Clouds: Scattered 200 ft.
Conditions: Mist.

KOGD 291717Z 17006KT 5SM BR SCT002 00/M02 A3022 RMK AO2 T00001017


Wind From 170°
Speed 06 kn.

 
 
jpsmedia worldairports.se 2020   terms of use